Portada
METAR-TAF:

METAR-TAF

Aeroports :

Coonabarabran, Austràlia

latitud: 31-20S, longitud: 149-16E, altitud: 645 m

Observació

L'informe es va fer fa 1 hora i 12 minuts, a les 16:00 UTC
Vent 5 kt del Oest/Sud-Oest
Temperatura 11°C
Humitat 87%
Pressió 1020 hPa

METAR: YCBB 271600Z AUTO 25005KT //// // ////// 11/09 Q1020

Hora: 03:12 (17:12 UTC)


TAF: manca

Observacions i pronòstics meteorològics de més de 4000 aeroports (METAR i TAF).

Les estacions disponibles són els punts grocs i vermells al mapa.

Posi el ratolí al punt desitjat per veure el nom de l'estació.

Feu clic per veure les observacions i els pronòstics meteorològics.

Per canviar el mapa: feu clic els botons verds amb una creu de color negre per apropar; al botó verd amb un guió per allunyar la imatge; o en les fletxes verdes per a mapes adjacents.


METAR-TAF: